sensor_id;sensor_type;location;lat;lon;timestamp;P1;durP1;ratioP1;P2;durP2;ratioP2
67352;SDS011;54238;52.278;21.056;2023-10-08T00:02:05;10.10;;;4.00;;
67352;SDS011;54238;52.278;21.056;2023-10-08T00:04:32;16.20;;;4.70;;
67352;SDS011;54238;52.278;21.056;2023-10-08T00:07:04;17.30;;;4.80;;
67352;SDS011;54238;52.278;21.056;2023-10-08T00:09:37;14.70;;;4.70;;
67352;SDS011;54238;52.278;21.056;2023-10-08T00:12:07;11.20;;;4.50;;
67352;SDS011;54238;52.278;21.056;2023-10-08T00:14:39;15.10;;;5.30;;
67352;SDS011;54238;52.278;21.056;2023-10-08T00:17:16;14.80;;;5.30;;
67352;SDS011;54238;52.278;21.056;2023-10-08T00:19:48;13.50;;;5.10;;
67352;SDS011;54238;52.278;21.056;2023-10-08T00:22:19;16.00;;;4.90;;
67352;SDS011;54238;52.278;21.056;2023-10-08T00:24:46;10.60;;;4.30;;
67352;SDS011;54238;52.278;21.056;2023-10-08T00:27:18;13.70;;;5.60;;
67352;SDS011;54238;52.278;21.056;2023-10-08T00:29:51;13.20;;;4.20;;
67352;SDS011;54238;52.278;21.056;2023-10-08T00:32:20;15.70;;;5.70;;
67352;SDS011;54238;52.278;21.056;2023-10-08T00:34:52;13.90;;;5.40;;
67352;SDS011;54238;52.278;21.056;2023-10-08T00:37:21;12.10;;;4.80;;
67352;SDS011;54238;52.278;21.056;2023-10-08T00:39:55;14.50;;;5.40;;
67352;SDS011;54238;52.278;21.056;2023-10-08T00:42:28;14.50;;;6.10;;
67352;SDS011;54238;52.278;21.056;2023-10-08T00:45:00;23.10;;;6.50;;
67352;SDS011;54238;52.278;21.056;2023-10-08T00:47:33;18.80;;;6.90;;
67352;SDS011;54238;52.278;21.056;2023-10-08T00:50:12;19.50;;;7.10;;
67352;SDS011;54238;52.278;21.056;2023-10-08T00:53:10;20.70;;;6.80;;
67352;SDS011;54238;52.278;21.056;2023-10-08T00:55:57;18.60;;;6.40;;
67352;SDS011;54238;52.278;21.056;2023-10-08T00:58:32;16.30;;;6.40;;
67352;SDS011;54238;52.278;21.056;2023-10-08T01:01:04;15.60;;;6.10;;
67352;SDS011;54238;52.278;21.056;2023-10-08T01:03:37;22.70;;;6.60;;
67352;SDS011;54238;52.278;21.056;2023-10-08T01:06:13;17.30;;;6.10;;
67352;SDS011;54238;52.278;21.056;2023-10-08T01:08:46;17.50;;;6.50;;
67352;SDS011;54238;52.278;21.056;2023-10-08T01:14:13;12.60;;;5.90;;
67352;SDS011;54238;52.278;21.056;2023-10-08T01:16:44;17.90;;;6.70;;
67352;SDS011;54238;52.278;21.056;2023-10-08T01:19:22;19.20;;;6.70;;
67352;SDS011;54238;52.278;21.056;2023-10-08T01:21:52;15.20;;;6.10;;
67352;SDS011;54238;52.278;21.056;2023-10-08T01:24:22;10.80;;;4.80;;
67352;SDS011;54238;52.278;21.056;2023-10-08T01:26:56;15.00;;;6.30;;
67352;SDS011;54238;52.278;21.056;2023-10-08T01:29:25;20.80;;;6.50;;
67352;SDS011;54238;52.278;21.056;2023-10-08T01:31:55;17.80;;;6.10;;
67352;SDS011;54238;52.278;21.056;2023-10-08T01:34:24;15.90;;;6.40;;
67352;SDS011;54238;52.278;21.056;2023-10-08T01:36:57;17.10;;;6.90;;
67352;SDS011;54238;52.278;21.056;2023-10-08T01:39:36;26.00;;;7.10;;
67352;SDS011;54238;52.278;21.056;2023-10-08T01:42:05;15.60;;;6.60;;
67352;SDS011;54238;52.278;21.056;2023-10-08T01:44:45;18.80;;;5.90;;
67352;SDS011;54238;52.278;21.056;2023-10-08T01:47:22;18.00;;;6.20;;
67352;SDS011;54238;52.278;21.056;2023-10-08T01:49:57;20.60;;;6.60;;
67352;SDS011;54238;52.278;21.056;2023-10-08T01:52:32;16.70;;;5.60;;
67352;SDS011;54238;52.278;21.056;2023-10-08T01:55:06;17.50;;;5.90;;
67352;SDS011;54238;52.278;21.056;2023-10-08T01:57:40;13.80;;;5.70;;
67352;SDS011;54238;52.278;21.056;2023-10-08T02:02:50;14.90;;;5.30;;
67352;SDS011;54238;52.278;21.056;2023-10-08T02:05:20;17.80;;;6.10;;
67352;SDS011;54238;52.278;21.056;2023-10-08T02:07:48;21.00;;;6.30;;
67352;SDS011;54238;52.278;21.056;2023-10-08T02:10:17;18.60;;;6.00;;
67352;SDS011;54238;52.278;21.056;2023-10-08T02:12:52;19.50;;;6.30;;
67352;SDS011;54238;52.278;21.056;2023-10-08T02:15:19;16.10;;;5.40;;
67352;SDS011;54238;52.278;21.056;2023-10-08T02:17:49;19.00;;;6.00;;
67352;SDS011;54238;52.278;21.056;2023-10-08T02:20:20;17.80;;;6.60;;
67352;SDS011;54238;52.278;21.056;2023-10-08T02:22:57;13.20;;;5.30;;
67352;SDS011;54238;52.278;21.056;2023-10-08T02:25:32;14.80;;;5.10;;
67352;SDS011;54238;52.278;21.056;2023-10-08T02:28:05;12.50;;;4.80;;
67352;SDS011;54238;52.278;21.056;2023-10-08T02:30:42;12.30;;;6.90;;
67352;SDS011;54238;52.278;21.056;2023-10-08T02:33:10;13.30;;;4.60;;
67352;SDS011;54238;52.278;21.056;2023-10-08T02:35:45;13.90;;;4.90;;
67352;SDS011;54238;52.278;21.056;2023-10-08T02:38:21;14.60;;;4.60;;
67352;SDS011;54238;52.278;21.056;2023-10-08T02:40:51;13.40;;;5.00;;
67352;SDS011;54238;52.278;21.056;2023-10-08T02:45:57;11.20;;;3.80;;
67352;SDS011;54238;52.278;21.056;2023-10-08T02:48:27;13.30;;;4.70;;
67352;SDS011;54238;52.278;21.056;2023-10-08T02:51:01;17.30;;;4.90;;
67352;SDS011;54238;52.278;21.056;2023-10-08T02:53:51;11.80;;;4.10;;
67352;SDS011;54238;52.278;21.056;2023-10-08T02:56:23;12.20;;;3.90;;
67352;SDS011;54238;52.278;21.056;2023-10-08T02:59:01;14.50;;;4.20;;
67352;SDS011;54238;52.278;21.056;2023-10-08T03:01:30;10.60;;;3.90;;
67352;SDS011;54238;52.278;21.056;2023-10-08T03:04:02;9.20;;;3.50;;
67352;SDS011;54238;52.278;21.056;2023-10-08T03:06:41;8.60;;;3.30;;
67352;SDS011;54238;52.278;21.056;2023-10-08T03:09:11;6.40;;;3.00;;
67352;SDS011;54238;52.278;21.056;2023-10-08T03:11:43;9.70;;;3.20;;
67352;SDS011;54238;52.278;21.056;2023-10-08T03:14:30;8.10;;;3.00;;
67352;SDS011;54238;52.278;21.056;2023-10-08T03:17:22;5.80;;;2.10;;
67352;SDS011;54238;52.278;21.056;2023-10-08T03:19:52;9.20;;;2.70;;
67352;SDS011;54238;52.278;21.056;2023-10-08T03:22:33;8.60;;;2.40;;
67352;SDS011;54238;52.278;21.056;2023-10-08T03:25:04;7.00;;;2.60;;
67352;SDS011;54238;52.278;21.056;2023-10-08T03:27:43;7.00;;;2.70;;
67352;SDS011;54238;52.278;21.056;2023-10-08T03:30:15;7.80;;;3.20;;
67352;SDS011;54238;52.278;21.056;2023-10-08T03:32:50;7.10;;;2.40;;
67352;SDS011;54238;52.278;21.056;2023-10-08T03:35:28;12.90;;;2.40;;
67352;SDS011;54238;52.278;21.056;2023-10-08T03:38:08;6.80;;;2.00;;
67352;SDS011;54238;52.278;21.056;2023-10-08T03:40:55;7.40;;;1.90;;
67352;SDS011;54238;52.278;21.056;2023-10-08T03:43:42;5.00;;;1.80;;
67352;SDS011;54238;52.278;21.056;2023-10-08T03:46:34;4.30;;;1.80;;
67352;SDS011;54238;52.278;21.056;2023-10-08T03:49:11;6.30;;;2.10;;
67352;SDS011;54238;52.278;21.056;2023-10-08T03:51:43;4.10;;;2.00;;
67352;SDS011;54238;52.278;21.056;2023-10-08T03:54:16;4.20;;;1.90;;
67352;SDS011;54238;52.278;21.056;2023-10-08T03:56:45;7.70;;;1.70;;
67352;SDS011;54238;52.278;21.056;2023-10-08T03:59:20;3.70;;;1.80;;
67352;SDS011;54238;52.278;21.056;2023-10-08T04:01:59;5.60;;;1.70;;
67352;SDS011;54238;52.278;21.056;2023-10-08T04:04:52;5.80;;;1.90;;
67352;SDS011;54238;52.278;21.056;2023-10-08T04:07:25;3.40;;;1.40;;
67352;SDS011;54238;52.278;21.056;2023-10-08T04:10:35;4.30;;;1.90;;
67352;SDS011;54238;52.278;21.056;2023-10-08T04:13:09;4.00;;;1.60;;
67352;SDS011;54238;52.278;21.056;2023-10-08T04:16:05;7.70;;;1.80;;
67352;SDS011;54238;52.278;21.056;2023-10-08T04:18:35;4.80;;;1.50;;
67352;SDS011;54238;52.278;21.056;2023-10-08T04:21:08;3.80;;;1.60;;
67352;SDS011;54238;52.278;21.056;2023-10-08T04:23:41;4.20;;;1.80;;
67352;SDS011;54238;52.278;21.056;2023-10-08T04:26:14;3.20;;;1.60;;
67352;SDS011;54238;52.278;21.056;2023-10-08T04:28:47;3.80;;;1.90;;
67352;SDS011;54238;52.278;21.056;2023-10-08T04:31:20;3.20;;;1.50;;
67352;SDS011;54238;52.278;21.056;2023-10-08T04:33:58;6.20;;;1.50;;
67352;SDS011;54238;52.278;21.056;2023-10-08T04:36:28;4.80;;;1.60;;
67352;SDS011;54238;52.278;21.056;2023-10-08T04:38:59;3.30;;;1.70;;
67352;SDS011;54238;52.278;21.056;2023-10-08T04:41:37;4.80;;;1.60;;
67352;SDS011;54238;52.278;21.056;2023-10-08T04:44:12;6.00;;;2.10;;
67352;SDS011;54238;52.278;21.056;2023-10-08T04:47:07;3.20;;;1.80;;
67352;SDS011;54238;52.278;21.056;2023-10-08T04:50:16;2.60;;;1.40;;
67352;SDS011;54238;52.278;21.056;2023-10-08T04:52:50;2.70;;;1.50;;
67352;SDS011;54238;52.278;21.056;2023-10-08T04:55:26;3.30;;;1.60;;
67352;SDS011;54238;52.278;21.056;2023-10-08T04:57:57;3.10;;;1.60;;
67352;SDS011;54238;52.278;21.056;2023-10-08T05:00:27;3.20;;;1.40;;
67352;SDS011;54238;52.278;21.056;2023-10-08T05:03:25;4.80;;;1.40;;
67352;SDS011;54238;52.278;21.056;2023-10-08T05:06:03;3.10;;;1.70;;
67352;SDS011;54238;52.278;21.056;2023-10-08T05:08:44;3.70;;;1.50;;
67352;SDS011;54238;52.278;21.056;2023-10-08T05:11:24;4.50;;;1.60;;
67352;SDS011;54238;52.278;21.056;2023-10-08T05:14:05;9.20;;;1.40;;
67352;SDS011;54238;52.278;21.056;2023-10-08T05:16:33;3.50;;;1.30;;
67352;SDS011;54238;52.278;21.056;2023-10-08T05:19:36;3.70;;;1.60;;
67352;SDS011;54238;52.278;21.056;2023-10-08T05:22:38;3.30;;;1.30;;
67352;SDS011;54238;52.278;21.056;2023-10-08T05:25:05;2.50;;;1.40;;
67352;SDS011;54238;52.278;21.056;2023-10-08T05:27:55;2.50;;;1.30;;
67352;SDS011;54238;52.278;21.056;2023-10-08T05:30:26;3.70;;;1.40;;
67352;SDS011;54238;52.278;21.056;2023-10-08T05:32:56;4.00;;;1.30;;
67352;SDS011;54238;52.278;21.056;2023-10-08T05:35:30;2.60;;;1.20;;
67352;SDS011;54238;52.278;21.056;2023-10-08T05:38:15;2.60;;;1.10;;
67352;SDS011;54238;52.278;21.056;2023-10-08T05:40:53;3.20;;;1.40;;
67352;SDS011;54238;52.278;21.056;2023-10-08T05:46:31;4.80;;;1.60;;
67352;SDS011;54238;52.278;21.056;2023-10-08T05:49:15;4.40;;;1.40;;
67352;SDS011;54238;52.278;21.056;2023-10-08T05:51:55;3.60;;;1.10;;
67352;SDS011;54238;52.278;21.056;2023-10-08T05:54:27;5.70;;;1.60;;
67352;SDS011;54238;52.278;21.056;2023-10-08T05:57:08;2.40;;;1.30;;
67352;SDS011;54238;52.278;21.056;2023-10-08T05:59:42;3.40;;;1.40;;
67352;SDS011;54238;52.278;21.056;2023-10-08T06:02:21;3.70;;;1.40;;
67352;SDS011;54238;52.278;21.056;2023-10-08T06:10:29;2.10;;;1.30;;
67352;SDS011;54238;52.278;21.056;2023-10-08T06:13:04;4.30;;;1.40;;
67352;SDS011;54238;52.278;21.056;2023-10-08T06:15:56;2.20;;;1.20;;
67352;SDS011;54238;52.278;21.056;2023-10-08T06:18:29;3.60;;;1.20;;
67352;SDS011;54238;52.278;21.056;2023-10-08T06:21:06;2.30;;;1.10;;
67352;SDS011;54238;52.278;21.056;2023-10-08T06:23:40;2.50;;;0.90;;
67352;SDS011;54238;52.278;21.056;2023-10-08T06:26:11;3.80;;;1.40;;
67352;SDS011;54238;52.278;21.056;2023-10-08T06:28:44;1.80;;;1.00;;
67352;SDS011;54238;52.278;21.056;2023-10-08T06:31:16;1.80;;;1.00;;
67352;SDS011;54238;52.278;21.056;2023-10-08T06:33:52;3.50;;;1.00;;
67352;SDS011;54238;52.278;21.056;2023-10-08T06:36:20;2.20;;;1.00;;
67352;SDS011;54238;52.278;21.056;2023-10-08T06:38:53;1.20;;;0.70;;
67352;SDS011;54238;52.278;21.056;2023-10-08T06:41:23;3.10;;;1.00;;
67352;SDS011;54238;52.278;21.056;2023-10-08T06:44:00;3.10;;;1.00;;
67352;SDS011;54238;52.278;21.056;2023-10-08T06:46:30;2.60;;;1.00;;
67352;SDS011;54238;52.278;21.056;2023-10-08T06:49:09;2.30;;;1.00;;
67352;SDS011;54238;52.278;21.056;2023-10-08T06:51:47;4.20;;;0.80;;
67352;SDS011;54238;52.278;21.056;2023-10-08T06:54:19;1.50;;;0.90;;
67352;SDS011;54238;52.278;21.056;2023-10-08T06:56:49;3.20;;;0.90;;
67352;SDS011;54238;52.278;21.056;2023-10-08T06:59:24;2.40;;;1.00;;
67352;SDS011;54238;52.278;21.056;2023-10-08T07:01:55;2.30;;;1.00;;
67352;SDS011;54238;52.278;21.056;2023-10-08T07:04:28;3.40;;;1.20;;
67352;SDS011;54238;52.278;21.056;2023-10-08T07:06:55;3.00;;;1.10;;
67352;SDS011;54238;52.278;21.056;2023-10-08T07:09:25;4.10;;;1.00;;
67352;SDS011;54238;52.278;21.056;2023-10-08T07:11:57;4.90;;;1.10;;
67352;SDS011;54238;52.278;21.056;2023-10-08T07:14:28;4.60;;;1.00;;
67352;SDS011;54238;52.278;21.056;2023-10-08T07:16:59;1.20;;;0.70;;
67352;SDS011;54238;52.278;21.056;2023-10-08T07:19:30;3.70;;;1.20;;
67352;SDS011;54238;52.278;21.056;2023-10-08T07:24:51;5.30;;;1.00;;
67352;SDS011;54238;52.278;21.056;2023-10-08T07:27:19;3.80;;;1.00;;
67352;SDS011;54238;52.278;21.056;2023-10-08T07:29:50;1.60;;;0.90;;
67352;SDS011;54238;52.278;21.056;2023-10-08T07:32:22;2.00;;;0.80;;
67352;SDS011;54238;52.278;21.056;2023-10-08T07:35:09;2.90;;;0.80;;
67352;SDS011;54238;52.278;21.056;2023-10-08T07:37:51;3.40;;;1.00;;
67352;SDS011;54238;52.278;21.056;2023-10-08T07:40:22;2.70;;;0.90;;
67352;SDS011;54238;52.278;21.056;2023-10-08T07:42:56;4.00;;;0.80;;
67352;SDS011;54238;52.278;21.056;2023-10-08T07:45:36;2.40;;;0.70;;
67352;SDS011;54238;52.278;21.056;2023-10-08T07:48:05;3.80;;;1.00;;
67352;SDS011;54238;52.278;21.056;2023-10-08T07:50:45;2.30;;;0.80;;
67352;SDS011;54238;52.278;21.056;2023-10-08T07:53:13;2.00;;;1.00;;
67352;SDS011;54238;52.278;21.056;2023-10-08T07:55:46;2.30;;;1.00;;
67352;SDS011;54238;52.278;21.056;2023-10-08T07:58:15;2.30;;;0.90;;
67352;SDS011;54238;52.278;21.056;2023-10-08T08:00:45;3.50;;;1.20;;
67352;SDS011;54238;52.278;21.056;2023-10-08T08:03:21;4.80;;;0.90;;
67352;SDS011;54238;52.278;21.056;2023-10-08T08:05:48;3.60;;;1.40;;
67352;SDS011;54238;52.278;21.056;2023-10-08T08:08:19;3.50;;;1.10;;
67352;SDS011;54238;52.278;21.056;2023-10-08T08:10:48;3.20;;;0.70;;
67352;SDS011;54238;52.278;21.056;2023-10-08T08:13:24;1.90;;;0.80;;
67352;SDS011;54238;52.278;21.056;2023-10-08T08:15:55;3.20;;;1.10;;
67352;SDS011;54238;52.278;21.056;2023-10-08T08:18:25;1.80;;;0.90;;
67352;SDS011;54238;52.278;21.056;2023-10-08T08:21:01;2.90;;;1.10;;
67352;SDS011;54238;52.278;21.056;2023-10-08T08:23:31;3.80;;;1.00;;
67352;SDS011;54238;52.278;21.056;2023-10-08T08:26:00;4.50;;;0.90;;
67352;SDS011;54238;52.278;21.056;2023-10-08T08:28:41;3.10;;;0.80;;
67352;SDS011;54238;52.278;21.056;2023-10-08T08:31:15;2.60;;;1.10;;
67352;SDS011;54238;52.278;21.056;2023-10-08T08:33:46;6.30;;;1.10;;
67352;SDS011;54238;52.278;21.056;2023-10-08T08:36:37;2.40;;;1.00;;
67352;SDS011;54238;52.278;21.056;2023-10-08T08:39:17;3.80;;;1.00;;
67352;SDS011;54238;52.278;21.056;2023-10-08T08:42:05;2.40;;;1.00;;
67352;SDS011;54238;52.278;21.056;2023-10-08T08:44:41;1.80;;;0.80;;
67352;SDS011;54238;52.278;21.056;2023-10-08T08:47:17;1.40;;;0.70;;
67352;SDS011;54238;52.278;21.056;2023-10-08T08:49:47;10.30;;;1.30;;
67352;SDS011;54238;52.278;21.056;2023-10-08T08:52:17;2.00;;;0.80;;
67352;SDS011;54238;52.278;21.056;2023-10-08T08:54:45;4.40;;;1.30;;
67352;SDS011;54238;52.278;21.056;2023-10-08T08:57:23;3.10;;;0.90;;
67352;SDS011;54238;52.278;21.056;2023-10-08T08:59:53;3.40;;;0.90;;
67352;SDS011;54238;52.278;21.056;2023-10-08T09:02:27;3.20;;;1.30;;
67352;SDS011;54238;52.278;21.056;2023-10-08T09:04:57;1.80;;;0.90;;
67352;SDS011;54238;52.278;21.056;2023-10-08T09:07:24;2.00;;;1.00;;
67352;SDS011;54238;52.278;21.056;2023-10-08T09:09:56;1.90;;;0.90;;
67352;SDS011;54238;52.278;21.056;2023-10-08T09:12:29;2.00;;;1.20;;
67352;SDS011;54238;52.278;21.056;2023-10-08T09:15:01;3.00;;;1.10;;
67352;SDS011;54238;52.278;21.056;2023-10-08T09:17:30;2.90;;;1.00;;
67352;SDS011;54238;52.278;21.056;2023-10-08T09:20:02;3.00;;;1.30;;
67352;SDS011;54238;52.278;21.056;2023-10-08T09:25:03;3.80;;;0.90;;
67352;SDS011;54238;52.278;21.056;2023-10-08T09:27:35;2.90;;;1.20;;
67352;SDS011;54238;52.278;21.056;2023-10-08T09:30:13;2.80;;;1.20;;
67352;SDS011;54238;52.278;21.056;2023-10-08T09:32:47;2.50;;;1.00;;
67352;SDS011;54238;52.278;21.056;2023-10-08T09:35:17;2.80;;;0.90;;
67352;SDS011;54238;52.278;21.056;2023-10-08T09:37:48;1.80;;;0.80;;
67352;SDS011;54238;52.278;21.056;2023-10-08T09:40:17;2.50;;;1.10;;
67352;SDS011;54238;52.278;21.056;2023-10-08T09:42:48;1.90;;;1.00;;
67352;SDS011;54238;52.278;21.056;2023-10-08T09:45:18;2.00;;;1.00;;
67352;SDS011;54238;52.278;21.056;2023-10-08T09:47:53;2.70;;;1.10;;
67352;SDS011;54238;52.278;21.056;2023-10-08T09:50:33;4.10;;;1.00;;
67352;SDS011;54238;52.278;21.056;2023-10-08T09:53:11;2.40;;;1.10;;
67352;SDS011;54238;52.278;21.056;2023-10-08T09:55:55;2.10;;;1.10;;
67352;SDS011;54238;52.278;21.056;2023-10-08T09:58:27;2.10;;;0.90;;
67352;SDS011;54238;52.278;21.056;2023-10-08T10:00:59;1.40;;;0.90;;
67352;SDS011;54238;52.278;21.056;2023-10-08T10:03:32;3.30;;;1.10;;
67352;SDS011;54238;52.278;21.056;2023-10-08T10:06:11;2.90;;;1.00;;
67352;SDS011;54238;52.278;21.056;2023-10-08T10:17:11;6.40;;;1.10;;
67352;SDS011;54238;52.278;21.056;2023-10-08T10:19:43;3.40;;;1.20;;
67352;SDS011;54238;52.278;21.056;2023-10-08T10:22:14;2.50;;;1.10;;
67352;SDS011;54238;52.278;21.056;2023-10-08T10:25:02;2.30;;;0.90;;
67352;SDS011;54238;52.278;21.056;2023-10-08T10:28:29;2.40;;;1.30;;
67352;SDS011;54238;52.278;21.056;2023-10-08T10:30:33;2.10;;;0.80;;
67352;SDS011;54238;52.278;21.056;2023-10-08T10:33:08;4.20;;;1.00;;
67352;SDS011;54238;52.278;21.056;2023-10-08T10:35:37;4.70;;;1.50;;
67352;SDS011;54238;52.278;21.056;2023-10-08T10:38:07;2.90;;;1.10;;
67352;SDS011;54238;52.278;21.056;2023-10-08T10:40:39;4.10;;;1.40;;
67352;SDS011;54238;52.278;21.056;2023-10-08T10:43:09;3.50;;;1.10;;
67352;SDS011;54238;52.278;21.056;2023-10-08T10:45:36;4.60;;;1.60;;
67352;SDS011;54238;52.278;21.056;2023-10-08T10:48:07;6.60;;;1.40;;
67352;SDS011;54238;52.278;21.056;2023-10-08T10:50:43;4.00;;;1.50;;
67352;SDS011;54238;52.278;21.056;2023-10-08T10:53:35;4.00;;;1.40;;
67352;SDS011;54238;52.278;21.056;2023-10-08T10:56:13;1.60;;;1.00;;
67352;SDS011;54238;52.278;21.056;2023-10-08T10:58:59;4.50;;;1.60;;
67352;SDS011;54238;52.278;21.056;2023-10-08T11:01:29;4.40;;;1.30;;
67352;SDS011;54238;52.278;21.056;2023-10-08T11:04:19;2.40;;;1.10;;
67352;SDS011;54238;52.278;21.056;2023-10-08T11:06:50;4.00;;;1.60;;
67352;SDS011;54238;52.278;21.056;2023-10-08T11:09:23;3.50;;;1.80;;
67352;SDS011;54238;52.278;21.056;2023-10-08T11:12:08;5.80;;;2.50;;
67352;SDS011;54238;52.278;21.056;2023-10-08T11:14:43;4.60;;;1.30;;
67352;SDS011;54238;52.278;21.056;2023-10-08T11:17:19;2.10;;;1.20;;
67352;SDS011;54238;52.278;21.056;2023-10-08T11:19:56;2.50;;;1.20;;
67352;SDS011;54238;52.278;21.056;2023-10-08T11:22:43;3.50;;;1.20;;
67352;SDS011;54238;52.278;21.056;2023-10-08T11:25:23;1.90;;;1.00;;
67352;SDS011;54238;52.278;21.056;2023-10-08T11:27:57;1.60;;;0.90;;
67352;SDS011;54238;52.278;21.056;2023-10-08T11:30:35;3.40;;;1.50;;
67352;SDS011;54238;52.278;21.056;2023-10-08T11:33:03;3.70;;;1.40;;
67352;SDS011;54238;52.278;21.056;2023-10-08T11:35:33;4.20;;;1.10;;
67352;SDS011;54238;52.278;21.056;2023-10-08T11:38:00;2.20;;;1.20;;
67352;SDS011;54238;52.278;21.056;2023-10-08T11:40:34;1.70;;;1.10;;
67352;SDS011;54238;52.278;21.056;2023-10-08T11:43:24;4.70;;;1.10;;
67352;SDS011;54238;52.278;21.056;2023-10-08T11:45:51;2.40;;;1.00;;
67352;SDS011;54238;52.278;21.056;2023-10-08T11:48:19;3.00;;;1.00;;
67352;SDS011;54238;52.278;21.056;2023-10-08T11:50:55;2.20;;;1.20;;
67352;SDS011;54238;52.278;21.056;2023-10-08T11:53:30;2.40;;;1.10;;
67352;SDS011;54238;52.278;21.056;2023-10-08T11:56:03;1.10;;;0.80;;
67352;SDS011;54238;52.278;21.056;2023-10-08T11:58:42;3.20;;;0.70;;
67352;SDS011;54238;52.278;21.056;2023-10-08T12:01:11;1.00;;;0.70;;
67352;SDS011;54238;52.278;21.056;2023-10-08T12:03:42;2.00;;;1.20;;
67352;SDS011;54238;52.278;21.056;2023-10-08T12:06:13;3.90;;;0.70;;
67352;SDS011;54238;52.278;21.056;2023-10-08T12:08:45;3.10;;;1.20;;
67352;SDS011;54238;52.278;21.056;2023-10-08T12:11:20;2.90;;;0.90;;
67352;SDS011;54238;52.278;21.056;2023-10-08T12:14:00;2.80;;;1.30;;
67352;SDS011;54238;52.278;21.056;2023-10-08T12:16:29;1.80;;;1.00;;
67352;SDS011;54238;52.278;21.056;2023-10-08T12:18:57;7.00;;;1.40;;
67352;SDS011;54238;52.278;21.056;2023-10-08T12:21:37;2.10;;;0.90;;
67352;SDS011;54238;52.278;21.056;2023-10-08T12:24:10;4.30;;;1.20;;
67352;SDS011;54238;52.278;21.056;2023-10-08T12:26:39;2.00;;;0.90;;
67352;SDS011;54238;52.278;21.056;2023-10-08T12:29:14;2.80;;;1.00;;
67352;SDS011;54238;52.278;21.056;2023-10-08T12:31:51;2.20;;;1.00;;
67352;SDS011;54238;52.278;21.056;2023-10-08T12:34:20;3.30;;;1.00;;
67352;SDS011;54238;52.278;21.056;2023-10-08T12:36:52;2.40;;;1.20;;
67352;SDS011;54238;52.278;21.056;2023-10-08T12:39:19;6.70;;;1.50;;
67352;SDS011;54238;52.278;21.056;2023-10-08T12:41:52;5.30;;;1.10;;
67352;SDS011;54238;52.278;21.056;2023-10-08T12:44:23;1.60;;;1.00;;
67352;SDS011;54238;52.278;21.056;2023-10-08T12:46:53;6.90;;;1.80;;
67352;SDS011;54238;52.278;21.056;2023-10-08T12:49:27;4.90;;;1.10;;
67352;SDS011;54238;52.278;21.056;2023-10-08T12:52:03;7.90;;;1.50;;
67352;SDS011;54238;52.278;21.056;2023-10-08T12:54:33;2.60;;;1.20;;
67352;SDS011;54238;52.278;21.056;2023-10-08T12:57:14;2.70;;;1.10;;
67352;SDS011;54238;52.278;21.056;2023-10-08T12:59:46;4.10;;;1.00;;
67352;SDS011;54238;52.278;21.056;2023-10-08T13:02:21;2.00;;;1.10;;
67352;SDS011;54238;52.278;21.056;2023-10-08T13:04:57;5.30;;;1.20;;
67352;SDS011;54238;52.278;21.056;2023-10-08T13:07:29;2.90;;;1.20;;
67352;SDS011;54238;52.278;21.056;2023-10-08T13:10:08;2.30;;;1.10;;
67352;SDS011;54238;52.278;21.056;2023-10-08T13:12:46;2.90;;;1.10;;
67352;SDS011;54238;52.278;21.056;2023-10-08T13:15:15;3.50;;;1.30;;
67352;SDS011;54238;52.278;21.056;2023-10-08T13:17:48;3.00;;;1.00;;
67352;SDS011;54238;52.278;21.056;2023-10-08T13:20:18;4.20;;;1.20;;
67352;SDS011;54238;52.278;21.056;2023-10-08T13:22:46;1.90;;;1.10;;
67352;SDS011;54238;52.278;21.056;2023-10-08T13:25:13;3.90;;;1.10;;
67352;SDS011;54238;52.278;21.056;2023-10-08T13:27:43;2.60;;;1.20;;
67352;SDS011;54238;52.278;21.056;2023-10-08T13:30:11;8.20;;;1.40;;
67352;SDS011;54238;52.278;21.056;2023-10-08T13:32:44;2.70;;;1.10;;
67352;SDS011;54238;52.278;21.056;2023-10-08T13:35:13;3.40;;;1.20;;
67352;SDS011;54238;52.278;21.056;2023-10-08T13:37:45;3.50;;;1.00;;
67352;SDS011;54238;52.278;21.056;2023-10-08T13:42:49;3.20;;;1.00;;
67352;SDS011;54238;52.278;21.056;2023-10-08T13:45:19;3.60;;;1.10;;
67352;SDS011;54238;52.278;21.056;2023-10-08T13:47:53;2.30;;;1.20;;
67352;SDS011;54238;52.278;21.056;2023-10-08T13:50:25;8.20;;;1.20;;
67352;SDS011;54238;52.278;21.056;2023-10-08T13:52:59;4.20;;;1.40;;
67352;SDS011;54238;52.278;21.056;2023-10-08T13:55:28;6.60;;;1.00;;
67352;SDS011;54238;52.278;21.056;2023-10-08T13:57:57;3.30;;;1.10;;
67352;SDS011;54238;52.278;21.056;2023-10-08T14:00:24;4.20;;;1.20;;
67352;SDS011;54238;52.278;21.056;2023-10-08T14:02:56;3.10;;;1.30;;
67352;SDS011;54238;52.278;21.056;2023-10-08T14:05:23;2.60;;;1.30;;
67352;SDS011;54238;52.278;21.056;2023-10-08T14:07:56;4.30;;;1.10;;
67352;SDS011;54238;52.278;21.056;2023-10-08T14:10:28;2.20;;;1.20;;
67352;SDS011;54238;52.278;21.056;2023-10-08T14:13:00;2.20;;;1.30;;
67352;SDS011;54238;52.278;21.056;2023-10-08T14:15:30;3.50;;;1.30;;
67352;SDS011;54238;52.278;21.056;2023-10-08T14:17:59;1.90;;;0.90;;
67352;SDS011;54238;52.278;21.056;2023-10-08T14:20:37;5.60;;;1.30;;
67352;SDS011;54238;52.278;21.056;2023-10-08T14:23:07;5.40;;;1.30;;
67352;SDS011;54238;52.278;21.056;2023-10-08T14:25:37;4.40;;;1.00;;
67352;SDS011;54238;52.278;21.056;2023-10-08T14:28:13;4.10;;;1.20;;
67352;SDS011;54238;52.278;21.056;2023-10-08T14:30:49;4.80;;;1.00;;
67352;SDS011;54238;52.278;21.056;2023-10-08T14:33:24;3.70;;;1.10;;
67352;SDS011;54238;52.278;21.056;2023-10-08T14:35:53;2.70;;;1.10;;
67352;SDS011;54238;52.278;21.056;2023-10-08T14:38:42;4.30;;;1.40;;
67352;SDS011;54238;52.278;21.056;2023-10-08T14:41:30;4.80;;;0.90;;
67352;SDS011;54238;52.278;21.056;2023-10-08T14:44:26;4.70;;;0.90;;
67352;SDS011;54238;52.278;21.056;2023-10-08T14:46:56;3.60;;;1.20;;
67352;SDS011;54238;52.278;21.056;2023-10-08T14:49:23;2.20;;;0.90;;
67352;SDS011;54238;52.278;21.056;2023-10-08T14:51:52;3.80;;;0.90;;
67352;SDS011;54238;52.278;21.056;2023-10-08T14:54:21;3.10;;;1.10;;
67352;SDS011;54238;52.278;21.056;2023-10-08T14:56:48;4.20;;;1.10;;
67352;SDS011;54238;52.278;21.056;2023-10-08T14:59:28;2.60;;;1.00;;
67352;SDS011;54238;52.278;21.056;2023-10-08T15:01:55;5.40;;;1.10;;
67352;SDS011;54238;52.278;21.056;2023-10-08T15:04:24;6.70;;;1.20;;
67352;SDS011;54238;52.278;21.056;2023-10-08T15:06:59;4.60;;;1.20;;
67352;SDS011;54238;52.278;21.056;2023-10-08T15:09:32;4.20;;;1.30;;
67352;SDS011;54238;52.278;21.056;2023-10-08T15:12:02;2.70;;;1.10;;
67352;SDS011;54238;52.278;21.056;2023-10-08T15:14:35;3.60;;;1.20;;
67352;SDS011;54238;52.278;21.056;2023-10-08T15:17:05;3.60;;;1.10;;
67352;SDS011;54238;52.278;21.056;2023-10-08T15:19:32;3.70;;;1.10;;
67352;SDS011;54238;52.278;21.056;2023-10-08T15:21:59;5.80;;;1.30;;
67352;SDS011;54238;52.278;21.056;2023-10-08T15:24:26;4.00;;;1.30;;
67352;SDS011;54238;52.278;21.056;2023-10-08T15:26:54;2.80;;;1.30;;
67352;SDS011;54238;52.278;21.056;2023-10-08T15:29:24;4.50;;;1.40;;
67352;SDS011;54238;52.278;21.056;2023-10-08T15:31:57;3.20;;;1.10;;
67352;SDS011;54238;52.278;21.056;2023-10-08T15:34:29;2.10;;;1.10;;
67352;SDS011;54238;52.278;21.056;2023-10-08T15:37:01;3.60;;;1.30;;
67352;SDS011;54238;52.278;21.056;2023-10-08T15:39:31;4.40;;;1.20;;
67352;SDS011;54238;52.278;21.056;2023-10-08T15:42:03;4.50;;;1.10;;
67352;SDS011;54238;52.278;21.056;2023-10-08T15:44:32;3.70;;;1.20;;
67352;SDS011;54238;52.278;21.056;2023-10-08T15:47:00;3.80;;;1.30;;